sensor_id;sensor_type;location;lat;lon;timestamp;pressure;altitude;pressure_sealevel;temperature;humidity
57102;BME280;42982;54.558;18.508;2022-09-17T00:00:53;99008.00;;;11.81;84.33
57102;BME280;42982;54.558;18.508;2022-09-17T00:02:03;98995.97;;;11.79;84.61
57102;BME280;42982;54.558;18.508;2022-09-17T00:03:09;99004.03;;;11.79;84.85
57102;BME280;42982;54.558;18.508;2022-09-17T00:04:13;99005.78;;;11.83;84.54
57102;BME280;42982;54.558;18.508;2022-09-17T00:05:18;99008.97;;;11.86;84.71
57102;BME280;42982;54.558;18.508;2022-09-17T00:06:24;99006.91;;;11.82;84.67
57102;BME280;42982;54.558;18.508;2022-09-17T00:07:37;99006.56;;;11.84;84.84
57102;BME280;42982;54.558;18.508;2022-09-17T00:08:44;98997.22;;;11.81;84.63
57102;BME280;42982;54.558;18.508;2022-09-17T00:09:47;99004.09;;;11.70;84.47
57102;BME280;42982;54.558;18.508;2022-09-17T00:10:50;99006.94;;;11.74;84.95
57102;BME280;42982;54.558;18.508;2022-09-17T00:11:53;99009.75;;;11.77;84.89
57102;BME280;42982;54.558;18.508;2022-09-17T00:12:55;99008.63;;;11.78;84.85
57102;BME280;42982;54.558;18.508;2022-09-17T00:14:04;99009.59;;;11.82;84.95
57102;BME280;42982;54.558;18.508;2022-09-17T00:15:07;99003.38;;;11.82;84.98
57102;BME280;42982;54.558;18.508;2022-09-17T00:16:11;99013.72;;;11.89;85.01
57102;BME280;42982;54.558;18.508;2022-09-17T00:17:13;99013.22;;;11.87;84.67
57102;BME280;42982;54.558;18.508;2022-09-17T00:18:15;99012.75;;;11.85;84.81
57102;BME280;42982;54.558;18.508;2022-09-17T00:19:21;99011.66;;;11.86;84.69
57102;BME280;42982;54.558;18.508;2022-09-17T00:20:24;99019.09;;;11.89;84.69
57102;BME280;42982;54.558;18.508;2022-09-17T00:21:27;99016.06;;;11.81;84.64
57102;BME280;42982;54.558;18.508;2022-09-17T00:22:32;99016.72;;;11.87;84.76
57102;BME280;42982;54.558;18.508;2022-09-17T00:23:38;99006.41;;;11.80;84.65
57102;BME280;42982;54.558;18.508;2022-09-17T00:24:43;99017.84;;;11.77;85.22
57102;BME280;42982;54.558;18.508;2022-09-17T00:25:45;99021.78;;;11.80;84.90
57102;BME280;42982;54.558;18.508;2022-09-17T00:26:49;99021.66;;;11.76;85.04
57102;BME280;42982;54.558;18.508;2022-09-17T00:27:53;99018.47;;;11.74;85.43
57102;BME280;42982;54.558;18.508;2022-09-17T00:29:00;99020.53;;;11.77;85.40
57102;BME280;42982;54.558;18.508;2022-09-17T00:30:06;99023.22;;;11.77;85.44
57102;BME280;42982;54.558;18.508;2022-09-17T00:31:12;99019.88;;;11.80;85.26
57102;BME280;42982;54.558;18.508;2022-09-17T00:32:17;99023.34;;;11.81;85.48
57102;BME280;42982;54.558;18.508;2022-09-17T00:33:25;99022.75;;;11.75;85.77
57102;BME280;42982;54.558;18.508;2022-09-17T00:34:34;99030.19;;;11.78;85.66
57102;BME280;42982;54.558;18.508;2022-09-17T00:35:39;99026.22;;;11.85;85.72
57102;BME280;42982;54.558;18.508;2022-09-17T00:36:41;99038.72;;;11.80;85.92
57102;BME280;42982;54.558;18.508;2022-09-17T00:37:43;99034.59;;;11.83;85.67
57102;BME280;42982;54.558;18.508;2022-09-17T00:38:58;99034.91;;;11.81;85.59
57102;BME280;42982;54.558;18.508;2022-09-17T00:40:07;99038.25;;;11.78;86.00
57102;BME280;42982;54.558;18.508;2022-09-17T00:41:13;99036.03;;;11.80;86.28
57102;BME280;42982;54.558;18.508;2022-09-17T00:42:16;99037.31;;;11.83;85.94
57102;BME280;42982;54.558;18.508;2022-09-17T00:43:44;99049.97;;;11.82;85.89
57102;BME280;42982;54.558;18.508;2022-09-17T00:44:53;99052.06;;;11.86;85.98
57102;BME280;42982;54.558;18.508;2022-09-17T00:46:03;99045.06;;;11.85;86.10
57102;BME280;42982;54.558;18.508;2022-09-17T00:48:27;99051.56;;;11.83;86.06
57102;BME280;42982;54.558;18.508;2022-09-17T00:49:30;99053.94;;;11.85;86.29
57102;BME280;42982;54.558;18.508;2022-09-17T00:50:41;99055.84;;;11.85;86.29
57102;BME280;42982;54.558;18.508;2022-09-17T00:52:00;99049.81;;;11.88;86.11
57102;BME280;42982;54.558;18.508;2022-09-17T00:53:13;99052.66;;;11.82;86.18
57102;BME280;42982;54.558;18.508;2022-09-17T00:54:16;99055.84;;;11.85;86.36
57102;BME280;42982;54.558;18.508;2022-09-17T00:55:31;99054.41;;;11.87;86.03
57102;BME280;42982;54.558;18.508;2022-09-17T00:56:37;99055.34;;;11.91;86.02
57102;BME280;42982;54.558;18.508;2022-09-17T00:57:44;99047.72;;;11.93;85.94
57102;BME280;42982;54.558;18.508;2022-09-17T00:58:46;99042.81;;;11.95;85.96
57102;BME280;42982;54.558;18.508;2022-09-17T00:59:52;99047.13;;;11.88;86.02
57102;BME280;42982;54.558;18.508;2022-09-17T01:00:57;99047.59;;;11.90;85.97
57102;BME280;42982;54.558;18.508;2022-09-17T01:02:00;99038.88;;;11.93;85.88
57102;BME280;42982;54.558;18.508;2022-09-17T01:03:08;99045.84;;;11.85;86.23
57102;BME280;42982;54.558;18.508;2022-09-17T01:04:21;99048.72;;;11.89;86.07
57102;BME280;42982;54.558;18.508;2022-09-17T01:08:44;99042.47;;;11.97;85.91
57102;BME280;42982;54.558;18.508;2022-09-17T01:15:41;99040.00;;;11.92;86.29
57102;BME280;42982;54.558;18.508;2022-09-17T01:25:19;99019.63;;;12.03;86.39
57102;BME280;42982;54.558;18.508;2022-09-17T01:29:53;99021.28;;;11.95;86.81
57102;BME280;42982;54.558;18.508;2022-09-17T01:31:58;99022.50;;;11.98;86.64
57102;BME280;42982;54.558;18.508;2022-09-17T01:33:32;99030.28;;;11.99;86.59
57102;BME280;42982;54.558;18.508;2022-09-17T01:34:44;99026.31;;;11.97;86.88
57102;BME280;42982;54.558;18.508;2022-09-17T01:35:55;99025.19;;;11.98;86.70
57102;BME280;42982;54.558;18.508;2022-09-17T01:37:11;99031.25;;;11.95;86.92
57102;BME280;42982;54.558;18.508;2022-09-17T01:40:13;99033.28;;;11.98;86.83
57102;BME280;42982;54.558;18.508;2022-09-17T01:45:29;99029.06;;;11.88;87.27
57102;BME280;42982;54.558;18.508;2022-09-17T01:46:51;99025.13;;;11.86;87.32
57102;BME280;42982;54.558;18.508;2022-09-17T01:48:20;99036.81;;;11.90;87.24
57102;BME280;42982;54.558;18.508;2022-09-17T01:49:25;99032.22;;;11.90;87.24
57102;BME280;42982;54.558;18.508;2022-09-17T01:50:30;99041.56;;;11.93;87.19
57102;BME280;42982;54.558;18.508;2022-09-17T01:51:42;99034.28;;;11.93;86.93
57102;BME280;42982;54.558;18.508;2022-09-17T01:52:53;99029.66;;;11.94;87.13
57102;BME280;42982;54.558;18.508;2022-09-17T01:54:02;99032.06;;;11.95;87.23
57102;BME280;42982;54.558;18.508;2022-09-17T01:55:08;99032.06;;;11.95;87.12
57102;BME280;42982;54.558;18.508;2022-09-17T01:56:14;99031.28;;;11.86;87.52
57102;BME280;42982;54.558;18.508;2022-09-17T01:57:28;99040.00;;;11.92;87.32
57102;BME280;42982;54.558;18.508;2022-09-17T01:58:41;99040.91;;;11.96;87.10
57102;BME280;42982;54.558;18.508;2022-09-17T02:00:50;99040.13;;;11.95;87.20
57102;BME280;42982;54.558;18.508;2022-09-17T02:01:56;99046.75;;;11.98;87.30
57102;BME280;42982;54.558;18.508;2022-09-17T02:03:07;99053.13;;;11.93;87.24
57102;BME280;42982;54.558;18.508;2022-09-17T02:04:15;99047.72;;;11.93;87.06
57102;BME280;42982;54.558;18.508;2022-09-17T02:06:52;99047.44;;;11.95;87.12
57102;BME280;42982;54.558;18.508;2022-09-17T02:08:09;99050.75;;;11.92;87.25
57102;BME280;42982;54.558;18.508;2022-09-17T02:09:38;99042.22;;;11.90;87.40
57102;BME280;42982;54.558;18.508;2022-09-17T02:10:48;99054.56;;;11.91;87.40
57102;BME280;42982;54.558;18.508;2022-09-17T02:11:54;99041.56;;;11.93;87.25
57102;BME280;42982;54.558;18.508;2022-09-17T02:13:08;99052.97;;;11.90;87.02
57102;BME280;42982;54.558;18.508;2022-09-17T02:14:14;99045.56;;;11.87;87.07
57102;BME280;42982;54.558;18.508;2022-09-17T02:15:23;99052.50;;;11.88;86.72
57102;BME280;42982;54.558;18.508;2022-09-17T02:16:29;99051.72;;;11.78;87.05
57102;BME280;42982;54.558;18.508;2022-09-17T02:17:48;99038.59;;;11.77;87.44
57102;BME280;42982;54.558;18.508;2022-09-17T02:19:56;99048.06;;;11.83;87.03
57102;BME280;42982;54.558;18.508;2022-09-17T02:21:07;99057.75;;;11.75;87.70
57102;BME280;42982;54.558;18.508;2022-09-17T02:23:44;99043.97;;;11.77;87.42
57102;BME280;42982;54.558;18.508;2022-09-17T02:26:06;99046.41;;;11.61;87.58
57102;BME280;42982;54.558;18.508;2022-09-17T02:28:45;99043.06;;;11.64;87.73
57102;BME280;42982;54.558;18.508;2022-09-17T02:29:59;99048.47;;;11.64;88.26
57102;BME280;42982;54.558;18.508;2022-09-17T02:31:01;99039.75;;;11.67;88.30
57102;BME280;42982;54.558;18.508;2022-09-17T02:32:04;99042.88;;;11.69;88.18
57102;BME280;42982;54.558;18.508;2022-09-17T02:33:08;99042.88;;;11.69;87.96
57102;BME280;42982;54.558;18.508;2022-09-17T02:34:14;99043.84;;;11.73;88.10
57102;BME280;42982;54.558;18.508;2022-09-17T02:35:20;99044.75;;;11.77;88.09
57102;BME280;42982;54.558;18.508;2022-09-17T02:36:24;99036.34;;;11.79;88.09
57102;BME280;42982;54.558;18.508;2022-09-17T02:37:29;99046.03;;;11.80;87.91
57102;BME280;42982;54.558;18.508;2022-09-17T02:38:31;99039.38;;;11.77;87.92
57102;BME280;42982;54.558;18.508;2022-09-17T02:39:35;99050.78;;;11.74;88.35
57102;BME280;42982;54.558;18.508;2022-09-17T02:40:49;99041.72;;;11.79;87.86
57102;BME280;42982;54.558;18.508;2022-09-17T02:43:28;99050.47;;;11.85;87.85
57102;BME280;42982;54.558;18.508;2022-09-17T02:44:47;99055.41;;;11.74;88.01
57102;BME280;42982;54.558;18.508;2022-09-17T02:47:57;99049.50;;;11.80;87.86
57102;BME280;42982;54.558;18.508;2022-09-17T02:53:07;99050.94;;;11.87;87.39
57102;BME280;42982;54.558;18.508;2022-09-17T02:55:35;99052.97;;;11.81;87.69
57102;BME280;42982;54.558;18.508;2022-09-17T02:57:06;99047.28;;;11.82;87.33
57102;BME280;42982;54.558;18.508;2022-09-17T02:58:31;99051.56;;;11.83;87.63
57102;BME280;42982;54.558;18.508;2022-09-17T02:59:59;99050.94;;;11.87;87.53
57102;BME280;42982;54.558;18.508;2022-09-17T03:01:18;99052.34;;;11.84;87.46
57102;BME280;42982;54.558;18.508;2022-09-17T03:02:29;99051.28;;;11.76;87.42
57102;BME280;42982;54.558;18.508;2022-09-17T03:03:35;99056.31;;;11.78;87.41
57102;BME280;42982;54.558;18.508;2022-09-17T03:04:38;99059.78;;;11.78;87.19
57102;BME280;42982;54.558;18.508;2022-09-17T03:05:41;99054.88;;;11.80;87.21
57102;BME280;42982;54.558;18.508;2022-09-17T03:06:45;99055.25;;;11.70;87.62
57102;BME280;42982;54.558;18.508;2022-09-17T03:08:11;99046.97;;;11.75;87.36
57102;BME280;42982;54.558;18.508;2022-09-17T03:09:18;99050.16;;;11.77;87.22
57102;BME280;42982;54.558;18.508;2022-09-17T03:10:25;99046.81;;;11.80;87.17
57102;BME280;42982;54.558;18.508;2022-09-17T03:11:55;99048.38;;;11.81;87.30
57102;BME280;42982;54.558;18.508;2022-09-17T03:13:34;99047.75;;;11.85;87.21
57102;BME280;42982;54.558;18.508;2022-09-17T03:14:39;99045.69;;;11.81;86.82
57102;BME280;42982;54.558;18.508;2022-09-17T03:15:44;99047.47;;;11.77;87.00
57102;BME280;42982;54.558;18.508;2022-09-17T03:17:05;99050.16;;;11.77;86.84
57102;BME280;42982;54.558;18.508;2022-09-17T03:18:30;99047.94;;;11.79;86.93
57102;BME280;42982;54.558;18.508;2022-09-17T03:19:34;99047.94;;;11.79;86.94
57102;BME280;42982;54.558;18.508;2022-09-17T03:20:37;99054.41;;;11.78;86.91
57102;BME280;42982;54.558;18.508;2022-09-17T03:21:59;99056.00;;;11.79;86.77
57102;BME280;42982;54.558;18.508;2022-09-17T03:23:42;99048.72;;;11.80;86.58
57102;BME280;42982;54.558;18.508;2022-09-17T03:25:05;99053.31;;;11.79;86.72
57102;BME280;42982;54.558;18.508;2022-09-17T03:26:09;99047.31;;;11.74;86.78
57102;BME280;42982;54.558;18.508;2022-09-17T03:27:32;99049.38;;;11.77;86.31
57102;BME280;42982;54.558;18.508;2022-09-17T03:28:55;99049.22;;;11.73;86.50
57102;BME280;42982;54.558;18.508;2022-09-17T03:30:03;99048.75;;;11.71;86.20
57102;BME280;42982;54.558;18.508;2022-09-17T03:31:13;99053.81;;;11.73;86.53
57102;BME280;42982;54.558;18.508;2022-09-17T03:32:37;99046.06;;;11.71;86.27
57102;BME280;42982;54.558;18.508;2022-09-17T03:34:04;99055.25;;;11.70;86.44
57102;BME280;42982;54.558;18.508;2022-09-17T03:35:09;99056.19;;;11.74;86.35
57102;BME280;42982;54.558;18.508;2022-09-17T03:36:11;99046.53;;;11.73;86.37
57102;BME280;42982;54.558;18.508;2022-09-17T03:37:36;99049.66;;;11.75;86.42
57102;BME280;42982;54.558;18.508;2022-09-17T03:39:02;99044.16;;;11.72;86.27
57102;BME280;42982;54.558;18.508;2022-09-17T03:40:10;99044.94;;;11.72;85.67
57102;BME280;42982;54.558;18.508;2022-09-17T03:41:36;99047.47;;;11.69;85.76
57102;BME280;42982;54.558;18.508;2022-09-17T03:43:15;99049.56;;;11.63;85.91
57102;BME280;42982;54.558;18.508;2022-09-17T03:44:40;99048.97;;;11.57;86.18
57102;BME280;42982;54.558;18.508;2022-09-17T03:45:42;99047.06;;;11.58;86.00
57102;BME280;42982;54.558;18.508;2022-09-17T03:47:04;99048.97;;;11.57;85.85
57102;BME280;42982;54.558;18.508;2022-09-17T03:48:51;99046.13;;;11.54;86.16
57102;BME280;42982;54.558;18.508;2022-09-17T03:50:11;99043.75;;;11.52;85.84
57102;BME280;42982;54.558;18.508;2022-09-17T03:51:16;99042.16;;;11.51;85.73
57102;BME280;42982;54.558;18.508;2022-09-17T03:52:20;99049.78;;;11.41;85.79
57102;BME280;42982;54.558;18.508;2022-09-17T03:53:24;99044.25;;;11.37;85.80
57102;BME280;42982;54.558;18.508;2022-09-17T03:54:32;99046.81;;;11.33;86.20
57102;BME280;42982;54.558;18.508;2022-09-17T03:55:40;99045.53;;;11.31;86.09
57102;BME280;42982;54.558;18.508;2022-09-17T03:56:45;99049.50;;;11.33;86.09
57102;BME280;42982;54.558;18.508;2022-09-17T03:57:47;99040.00;;;11.36;86.16
57102;BME280;42982;54.558;18.508;2022-09-17T03:58:55;99045.53;;;11.40;86.11
57102;BME280;42982;54.558;18.508;2022-09-17T04:00:03;99045.19;;;11.41;85.85
57102;BME280;42982;54.558;18.508;2022-09-17T04:01:13;99046.31;;;11.40;86.25
57102;BME280;42982;54.558;18.508;2022-09-17T04:02:17;99049.00;;;11.31;86.07
57102;BME280;42982;54.558;18.508;2022-09-17T04:03:19;99042.53;;;11.32;85.97
57102;BME280;42982;54.558;18.508;2022-09-17T04:04:24;99044.59;;;11.35;86.09
57102;BME280;42982;54.558;18.508;2022-09-17T04:05:26;99043.63;;;11.31;86.13
57102;BME280;42982;54.558;18.508;2022-09-17T04:06:33;99041.41;;;11.33;86.17
57102;BME280;42982;54.558;18.508;2022-09-17T04:07:39;99042.19;;;11.34;85.95
57102;BME280;42982;54.558;18.508;2022-09-17T04:08:41;99048.38;;;11.34;86.05
57102;BME280;42982;54.558;18.508;2022-09-17T04:09:48;99044.59;;;11.35;86.31
57102;BME280;42982;54.558;18.508;2022-09-17T04:10:51;99048.38;;;11.34;86.48
57102;BME280;42982;54.558;18.508;2022-09-17T04:11:55;99043.47;;;11.36;86.54
57102;BME280;42982;54.558;18.508;2022-09-17T04:13:01;99047.59;;;11.34;86.56
57102;BME280;42982;54.558;18.508;2022-09-17T04:14:06;99047.72;;;11.37;86.31
57102;BME280;42982;54.558;18.508;2022-09-17T04:15:10;99043.16;;;11.38;86.08
57102;BME280;42982;54.558;18.508;2022-09-17T04:16:19;99043.31;;;11.42;86.27
57102;BME280;42982;54.558;18.508;2022-09-17T04:17:20;99042.66;;;11.45;86.43
57102;BME280;42982;54.558;18.508;2022-09-17T04:18:25;99048.06;;;11.45;86.04
57102;BME280;42982;54.558;18.508;2022-09-17T04:19:33;99043.47;;;11.36;86.56
57102;BME280;42982;54.558;18.508;2022-09-17T04:20:42;99050.13;;;11.39;86.27
57102;BME280;42982;54.558;18.508;2022-09-17T04:21:52;99046.31;;;11.40;85.91
57102;BME280;42982;54.558;18.508;2022-09-17T04:22:56;99046.44;;;11.44;86.18
57102;BME280;42982;54.558;18.508;2022-09-17T04:23:59;99048.06;;;11.45;85.89
57102;BME280;42982;54.558;18.508;2022-09-17T04:25:03;99045.34;;;11.45;86.10
57102;BME280;42982;54.558;18.508;2022-09-17T04:26:06;99046.16;;;11.45;85.82
57102;BME280;42982;54.558;18.508;2022-09-17T04:27:13;99048.69;;;11.42;85.60
57102;BME280;42982;54.558;18.508;2022-09-17T04:28:15;99046.44;;;11.44;85.54
57102;BME280;42982;54.558;18.508;2022-09-17T04:29:17;99048.84;;;11.45;85.78
57102;BME280;42982;54.558;18.508;2022-09-17T04:30:22;99048.50;;;11.47;85.74
57102;BME280;42982;54.558;18.508;2022-09-17T04:31:27;99052.78;;;11.48;85.49
57102;BME280;42982;54.558;18.508;2022-09-17T04:32:32;99051.97;;;11.47;85.50
57102;BME280;42982;54.558;18.508;2022-09-17T04:33:34;99046.78;;;11.51;85.78
57102;BME280;42982;54.558;18.508;2022-09-17T04:34:41;99047.22;;;11.53;85.39
57102;BME280;42982;54.558;18.508;2022-09-17T04:35:47;99053.72;;;11.52;85.75
57102;BME280;42982;54.558;18.508;2022-09-17T04:36:49;99048.47;;;11.55;85.51
57102;BME280;42982;54.558;18.508;2022-09-17T04:37:55;99052.75;;;11.56;85.22
57102;BME280;42982;54.558;18.508;2022-09-17T04:39:02;99052.16;;;11.51;85.32
57102;BME280;42982;54.558;18.508;2022-09-17T04:40:06;99046.78;;;11.51;85.62
57102;BME280;42982;54.558;18.508;2022-09-17T04:41:12;99055.28;;;11.53;85.77
57102;BME280;42982;54.558;18.508;2022-09-17T04:42:17;99057.34;;;11.56;85.35
57102;BME280;42982;54.558;18.508;2022-09-17T04:43:19;99054.78;;;11.59;85.20
57102;BME280;42982;54.558;18.508;2022-09-17T04:44:29;99048.47;;;11.64;85.25
57102;BME280;42982;54.558;18.508;2022-09-17T04:45:36;99050.19;;;11.69;84.89
57102;BME280;42982;54.558;18.508;2022-09-17T04:46:39;99054.91;;;11.72;85.02
57102;BME280;42982;54.558;18.508;2022-09-17T04:47:45;99051.44;;;11.71;85.01
57102;BME280;42982;54.558;18.508;2022-09-17T04:48:52;99059.03;;;11.69;84.93
57102;BME280;42982;54.558;18.508;2022-09-17T04:49:57;99048.75;;;11.71;85.06
57102;BME280;42982;54.558;18.508;2022-09-17T04:51:04;99055.53;;;11.77;84.61
57102;BME280;42982;54.558;18.508;2022-09-17T04:52:06;99061.84;;;11.81;84.63
57102;BME280;42982;54.558;18.508;2022-09-17T04:53:10;99069.00;;;11.77;84.62
57102;BME280;42982;54.558;18.508;2022-09-17T04:54:15;99069.63;;;11.83;84.69
57102;BME280;42982;54.558;18.508;2022-09-17T04:55:22;99064.72;;;11.85;84.65
57102;BME280;42982;54.558;18.508;2022-09-17T04:56:27;99068.22;;;11.86;84.33
57102;BME280;42982;54.558;18.508;2022-09-17T04:57:33;99067.56;;;11.89;84.42
57102;BME280;42982;54.558;18.508;2022-09-17T04:58:37;99073.88;;;11.93;84.17
57102;BME280;42982;54.558;18.508;2022-09-17T04:59:39;99067.50;;;11.97;84.08
57102;BME280;42982;54.558;18.508;2022-09-17T05:00:47;99068.78;;;12.00;84.17
57102;BME280;42982;54.558;18.508;2022-09-17T05:01:49;99075.09;;;12.04;83.92
57102;BME280;42982;54.558;18.508;2022-09-17T05:02:53;99072.09;;;12.05;83.91
57102;BME280;42982;54.558;18.508;2022-09-17T05:03:55;99077.88;;;12.16;83.48
57102;BME280;42982;54.558;18.508;2022-09-17T05:05:03;99073.31;;;12.38;83.19
57102;BME280;42982;54.558;18.508;2022-09-17T05:06:04;99078.50;;;12.72;82.45
57102;BME280;42982;54.558;18.508;2022-09-17T05:07:09;99081.38;;;13.09;81.60
57102;BME280;42982;54.558;18.508;2022-09-17T05:08:11;99086.47;;;13.44;81.00
57102;BME280;42982;54.558;18.508;2022-09-17T05:09:14;99084.75;;;13.73;80.01
57102;BME280;42982;54.558;18.508;2022-09-17T05:10:23;99089.25;;;14.05;79.19
57102;BME280;42982;54.558;18.508;2022-09-17T05:11:29;99087.25;;;14.27;78.79
57102;BME280;42982;54.558;18.508;2022-09-17T05:12:33;99088.13;;;14.43;77.64
57102;BME280;42982;54.558;18.508;2022-09-17T05:13:35;99088.69;;;14.61;76.69
57102;BME280;42982;54.558;18.508;2022-09-17T05:14:40;99086.31;;;14.72;76.53
57102;BME280;42982;54.558;18.508;2022-09-17T05:15:47;99081.53;;;14.81;75.79
57102;BME280;42982;54.558;18.508;2022-09-17T05:16:52;99089.03;;;15.00;74.94
57102;BME280;42982;54.558;18.508;2022-09-17T05:17:54;99092.34;;;15.21;74.97
57102;BME280;42982;54.558;18.508;2022-09-17T05:18:57;99088.13;;;15.36;74.39
57102;BME280;42982;54.558;18.508;2022-09-17T05:20:02;99083.41;;;15.33;74.57
57102;BME280;42982;54.558;18.508;2022-09-17T05:21:05;99080.56;;;15.14;74.14
57102;BME280;42982;54.558;18.508;2022-09-17T05:22:13;99087.94;;;15.01;74.34
57102;BME280;42982;54.558;18.508;2022-09-17T05:23:15;99081.47;;;15.05;74.24
57102;BME280;42982;54.558;18.508;2022-09-17T05:24:21;99086.28;;;15.40;73.36
57102;BME280;42982;54.558;18.508;2022-09-17T05:25:23;99078.28;;;15.60;72.25
57102;BME280;42982;54.558;18.508;2022-09-17T05:26:30;99086.97;;;15.97;71.85
57102;BME280;42982;54.558;18.508;2022-09-17T05:27:35;99080.75;;;16.28;70.69
57102;BME280;42982;54.558;18.508;2022-09-17T05:28:39;99082.25;;;16.61;69.87
57102;BME280;42982;54.558;18.508;2022-09-17T05:29:42;99081.44;;;16.96;69.11
57102;BME280;42982;54.558;18.508;2022-09-17T05:30:47;99072.66;;;17.22;68.14
57102;BME280;42982;54.558;18.508;2022-09-17T05:31:52;99071.94;;;17.25;67.44
57102;BME280;42982;54.558;18.508;2022-09-17T05:33:04;99068.38;;;17.21;66.98
57102;BME280;42982;54.558;18.508;2022-09-17T05:34:08;99065.59;;;17.17;66.48
57102;BME280;42982;54.558;18.508;2022-09-17T05:35:10;99065.59;;;17.17;66.09
57102;BME280;42982;54.558;18.508;2022-09-17T05:36:13;99067.38;;;17.29;65.50
57102;BME280;42982;54.558;18.508;2022-09-17T05:37:16;99065.09;;;17.54;64.82
57102;BME280;42982;54.558;18.508;2022-09-17T05:38:19;99067.50;;;17.78;64.12
57102;BME280;42982;54.558;18.508;2022-09-17T05:39:23;99065.44;;;17.52;64.25
57102;BME280;42982;54.558;18.508;2022-09-17T05:40:28;99070.16;;;17.32;64.43
57102;BME280;42982;54.558;18.508;2022-09-17T05:41:33;99074.16;;;17.19;64.48
57102;BME280;42982;54.558;18.508;2022-09-17T05:42:38;99078.56;;;16.69;65.14
57102;BME280;42982;54.558;18.508;2022-09-17T05:43:44;99080.38;;;16.30;65.99
57102;BME280;42982;54.558;18.508;2022-09-17T05:44:49;99077.28;;;15.96;66.52
57102;BME280;42982;54.558;18.508;2022-09-17T05:45:55;99082.50;;;15.73;67.36
57102;BME280;42982;54.558;18.508;2022-09-17T05:46:59;99080.91;;;15.56;67.64
57102;BME280;42982;54.558;18.508;2022-09-17T05:48:06;99086.97;;;15.37;68.17
57102;BME280;42982;54.558;18.508;2022-09-17T05:49:11;99087.41;;;15.23;68.61
57102;BME280;42982;54.558;18.508;2022-09-17T05:50:17;99088.69;;;15.14;69.33
57102;BME280;42982;54.558;18.508;2022-09-17T05:51:20;99090.66;;;15.01;69.67
57102;BME280;42982;54.558;18.508;2022-09-17T05:52:28;99091.66;;;14.96;70.09
57102;BME280;42982;54.558;18.508;2022-09-17T05:53:38;99094.47;;;15.00;69.88
57102;BME280;42982;54.558;18.508;2022-09-17T05:54:40;99089.78;;;15.13;70.04
57102;BME280;42982;54.558;18.508;2022-09-17T05:55:45;99095.38;;;15.04;70.16
57102;BME280;42982;54.558;18.508;2022-09-17T05:56:48;99091.22;;;14.94;70.14
57102;BME280;42982;54.558;18.508;2022-09-17T05:57:56;99103.72;;;14.99;70.36
57102;BME280;42982;54.558;18.508;2022-09-17T05:58:58;99104.22;;;15.17;70.02
57102;BME280;42982;54.558;18.508;2022-09-17T06:00:00;99109.53;;;15.41;69.23
57102;BME280;42982;54.558;18.508;2022-09-17T06:01:16;99109.19;;;15.71;68.74
57102;BME280;42982;54.558;18.508;2022-09-17T06:02:23;99102.03;;;16.97;66.04
57102;BME280;42982;54.558;18.508;2022-09-17T06:03:28;99113.31;;;17.57;63.84
57102;BME280;42982;54.558;18.508;2022-09-17T06:04:30;99108.06;;;19.24;60.12
57102;BME280;42982;54.558;18.508;2022-09-17T06:05:32;99109.75;;;20.69;57.15
57102;BME280;42982;54.558;18.508;2022-09-17T06:06:37;99112.53;;;21.85;53.80
57102;BME280;42982;54.558;18.508;2022-09-17T06:07:44;99110.47;;;22.89;51.01
57102;BME280;42982;54.558;18.508;2022-09-17T06:08:48;99112.16;;;23.53;49.16
57102;BME280;42982;54.558;18.508;2022-09-17T06:09:51;99110.28;;;23.98;47.26
57102;BME280;42982;54.558;18.508;2022-09-17T06:10:56;99107.97;;;24.42;46.15
57102;BME280;42982;54.558;18.508;2022-09-17T06:11:58;99106.53;;;24.68;45.45
57102;BME280;42982;54.558;18.508;2022-09-17T06:13:01;99105.91;;;24.91;44.66
57102;BME280;42982;54.558;18.508;2022-09-17T06:14:07;99114.59;;;23.36;46.28
57102;BME280;42982;54.558;18.508;2022-09-17T06:15:09;99115.22;;;24.18;45.65
57102;BME280;42982;54.558;18.508;2022-09-17T06:16:19;99112.84;;;25.33;43.58
57102;BME280;42982;54.558;18.508;2022-09-17T06:17:20;99108.34;;;26.24;42.21
57102;BME280;42982;54.558;18.508;2022-09-17T06:18:26;99120.88;;;27.16;40.50
57102;BME280;42982;54.558;18.508;2022-09-17T06:19:29;99109.53;;;27.83;38.65
57102;BME280;42982;54.558;18.508;2022-09-17T06:20:33;99113.66;;;28.56;37.50
57102;BME280;42982;54.558;18.508;2022-09-17T06:21:36;99109.78;;;28.37;37.26
57102;BME280;42982;54.558;18.508;2022-09-17T06:22:43;99104.00;;;27.99;37.40
57102;BME280;42982;54.558;18.508;2022-09-17T06:23:46;99105.50;;;25.54;40.22
57102;BME280;42982;54.558;18.508;2022-09-17T06:24:54;99103.28;;;23.20;43.77
57102;BME280;42982;54.558;18.508;2022-09-17T06:26:05;99096.00;;;21.38;47.53
57102;BME280;42982;54.558;18.508;2022-09-17T06:27:07;99101.81;;;20.49;50.24
57102;BME280;42982;54.558;18.508;2022-09-17T06:28:12;99107.50;;;19.82;51.87
57102;BME280;42982;54.558;18.508;2022-09-17T06:29:17;99099.22;;;19.34;53.58
57102;BME280;42982;54.558;18.508;2022-09-17T06:30:21;99105.03;;;18.98;54.89
57102;BME280;42982;54.558;18.508;2022-09-17T06:31:29;99106.38;;;18.55;56.59
57102;BME280;42982;54.558;18.508;2022-09-17T06:32:33;99104.88;;;18.35;57.51
57102;BME280;42982;54.558;18.508;2022-09-17T06:33:38;99106.97;;;18.18;58.00
57102;BME280;42982;54.558;18.508;2022-09-17T06:34:43;99103.63;;;18.02;58.65
57102;BME280;42982;54.558;18.508;2022-09-17T06:35:45;99103.06;;;17.93;59.26
57102;BME280;42982;54.558;18.508;2022-09-17T06:36:52;99109.56;;;17.85;59.70
57102;BME280;42982;54.558;18.508;2022-09-17T06:37:54;99115.63;;;17.78;59.96
57102;BME280;42982;54.558;18.508;2022-09-17T06:39:01;99105.56;;;17.78;60.31
57102;BME280;42982;54.558;18.508;2022-09-17T06:40:06;99106.19;;;17.72;60.79
57102;BME280;42982;54.558;18.508;2022-09-17T06:41:11;99116.63;;;17.70;61.06